createdAt,value
2018-04-27T00:00:01.169Z,73.95
2018-04-27T00:02:30.161Z,74.34
2018-04-27T00:04:59.268Z,74.43
2018-04-27T00:07:30.094Z,74.58
2018-04-27T00:09:59.033Z,75.01
2018-04-27T00:12:28.100Z,75.18
2018-04-27T00:17:31.394Z,75.50
2018-04-27T00:20:00.387Z,75.86
2018-04-27T00:22:30.094Z,76.32
2018-04-27T00:24:59.092Z,76.59
2018-04-27T00:27:27.987Z,76.67
2018-04-27T00:29:57.062Z,76.79
2018-04-27T00:32:26.177Z,76.97
2018-04-27T00:34:55.269Z,76.86
2018-04-27T00:37:24.246Z,76.69
2018-04-27T00:39:53.160Z,76.77
2018-04-27T00:42:22.206Z,76.83
2018-04-27T00:44:51.146Z,77.10
2018-04-27T00:47:20.142Z,77.29
2018-04-27T00:49:49.243Z,77.69
2018-04-27T00:52:19.843Z,77.73
2018-04-27T00:54:48.764Z,77.63
2018-04-27T00:57:17.871Z,78.10
2018-04-27T00:59:48.603Z,78.55
2018-04-27T01:02:17.590Z,78.80
2018-04-27T01:04:46.542Z,79.23
2018-04-27T01:07:16.492Z,79.37
2018-04-27T01:09:45.491Z,79.37
2018-04-27T01:12:14.388Z,78.79
2018-04-27T01:14:44.212Z,78.45
2018-04-27T01:17:15.905Z,78.96
2018-04-27T01:22:19.682Z,78.61
2018-04-27T01:24:48.613Z,78.10
2018-04-27T01:27:17.714Z,78.48
2018-04-27T01:29:47.582Z,78.37
2018-04-27T01:32:16.575Z,78.73
2018-04-27T01:34:45.568Z,78.73
2018-04-27T01:37:14.571Z,78.54
2018-04-27T01:39:43.552Z,78.43
2018-04-27T01:42:12.554Z,78.61
2018-04-27T01:44:41.651Z,79.13
2018-04-27T01:47:10.535Z,79.38
2018-04-27T01:49:39.519Z,79.30
2018-04-27T01:52:09.453Z,79.42
2018-04-27T01:54:38.459Z,79.41
2018-04-27T01:57:07.540Z,79.41
2018-04-27T01:59:36.744Z,79.57
2018-04-27T02:02:05.570Z,79.65
2018-04-27T02:04:34.524Z,79.76
2018-04-27T02:07:03.724Z,79.53
2018-04-27T02:09:32.718Z,79.30
2018-04-27T02:12:01.710Z,79.27
2018-04-27T02:14:30.883Z,79.08
2018-04-27T02:16:59.796Z,78.85
2018-04-27T02:19:28.729Z,78.85
2018-04-27T02:21:58.612Z,78.88
2018-04-27T02:24:27.600Z,78.83
2018-04-27T02:26:56.593Z,78.98
2018-04-27T02:29:25.690Z,79.22
2018-04-27T02:31:54.588Z,79.29
2018-04-27T02:34:23.573Z,79.30
2018-04-27T02:36:52.653Z,79.42
2018-04-27T02:39:22.429Z,79.77
2018-04-27T02:41:51.416Z,80.37
2018-04-27T02:44:21.594Z,80.52
2018-04-27T02:46:50.609Z,80.76
2018-04-27T02:49:19.589Z,81.03
2018-04-27T02:51:50.222Z,81.48
2018-04-27T02:54:19.420Z,81.75
2018-04-27T02:56:48.231Z,82.15
2018-04-27T02:59:17.307Z,82.40
2018-04-27T03:01:46.506Z,82.30
2018-04-27T03:04:15.585Z,82.00
2018-04-27T03:06:45.339Z,81.80
2018-04-27T03:09:14.335Z,81.78
2018-04-27T03:14:11.369Z,81.69
2018-04-27T03:16:40.367Z,81.68
2018-04-27T03:19:10.248Z,81.77
2018-04-27T03:21:39.188Z,81.81
2018-04-27T03:24:08.277Z,81.88
2018-04-27T03:26:37.163Z,81.79
2018-04-27T03:29:06.303Z,81.81
2018-04-27T03:34:03.626Z,81.88
2018-04-27T03:36:34.265Z,81.78
2018-04-27T03:39:03.159Z,81.29
2018-04-27T03:41:32.050Z,79.81
2018-04-27T03:44:06.467Z,77.50
2018-04-27T03:46:35.343Z,74.62
2018-04-27T03:49:04.279Z,72.08
2018-04-27T03:51:33.247Z,69.00
2018-04-27T03:54:02.359Z,66.57
2018-04-27T03:56:31.230Z,63.99
2018-04-27T03:59:00.224Z,62.13
2018-04-27T04:01:41.098Z,60.93
2018-04-27T04:04:22.693Z,59.72
2018-04-27T04:06:51.576Z,60.66
2018-04-27T04:09:20.572Z,62.77
2018-04-27T04:11:52.028Z,63.80
2018-04-27T04:14:20.866Z,64.53
2018-04-27T04:16:49.805Z,65.41
2018-04-27T04:19:25.232Z,65.76
2018-04-27T04:21:54.758Z,65.76
2018-04-27T04:24:23.620Z,65.82
2018-04-27T04:26:52.541Z,63.10
2018-04-27T04:29:22.560Z,61.92
2018-04-27T04:31:51.551Z,59.86
2018-04-27T04:34:21.366Z,57.65
2018-04-27T04:36:50.360Z,58.07
2018-04-27T04:39:19.290Z,55.47
2018-04-27T04:41:49.240Z,51.75
2018-04-27T04:44:18.165Z,50.44
2018-04-27T04:46:47.208Z,49.13
2018-04-27T04:49:17.379Z,46.86
2018-04-27T04:51:46.475Z,46.45
2018-04-27T04:54:15.365Z,46.40
2018-04-27T04:59:20.727Z,42.32
2018-04-27T05:01:50.693Z,41.84
2018-04-27T05:04:20.316Z,40.27
2018-04-27T05:06:50.166Z,39.54
2018-04-27T05:09:19.174Z,39.79
2018-04-27T05:11:48.011Z,37.84
2018-04-27T05:14:17.814Z,38.01
2018-04-27T05:16:46.592Z,37.14
2018-04-27T05:19:16.173Z,35.85
2018-04-27T05:21:45.918Z,35.19
2018-04-27T05:24:16.467Z,36.67
2018-04-27T05:26:45.420Z,38.04
2018-04-27T05:29:14.704Z,37.81
2018-04-27T05:31:44.682Z,36.62
2018-04-27T05:34:18.539Z,35.80
2018-04-27T05:36:48.746Z,34.34
2018-04-27T05:39:17.746Z,35.08
2018-04-27T05:41:48.475Z,34.17
2018-04-27T05:44:17.561Z,32.63
2018-04-27T05:46:47.187Z,33.64
2018-04-27T05:49:19.147Z,35.61
2018-04-27T05:51:48.160Z,36.00
2018-04-27T05:54:19.110Z,36.14
2018-04-27T05:56:49.192Z,35.61
2018-04-27T05:59:18.332Z,36.84
2018-04-27T06:01:47.294Z,37.81
2018-04-27T06:04:16.211Z,40.54
2018-04-27T06:06:45.327Z,42.96
2018-04-27T06:09:14.481Z,40.36
2018-04-27T06:11:44.515Z,38.81
2018-04-27T06:14:13.498Z,38.50
2018-04-27T06:16:42.384Z,36.91
2018-04-27T06:19:11.374Z,35.45
2018-04-27T06:21:40.306Z,34.31
2018-04-27T06:24:09.346Z,33.56
2018-04-27T06:26:38.460Z,33.78
2018-04-27T06:29:07.490Z,29.92
2018-04-27T06:31:36.375Z,28.66
2018-04-27T06:34:05.284Z,28.87
2018-04-27T06:36:34.338Z,29.30
2018-04-27T06:39:03.275Z,34.19
2018-04-27T06:41:35.088Z,32.66
2018-04-27T06:44:04.180Z,29.85
2018-04-27T06:46:33.288Z,28.50
2018-04-27T06:49:03.193Z,27.45
2018-04-27T06:51:32.259Z,26.37
2018-04-27T06:54:01.380Z,25.22
2018-04-27T06:56:31.549Z,25.52
2018-04-27T06:59:00.557Z,25.56
2018-04-27T07:01:30.059Z,25.44
2018-04-27T07:04:02.283Z,25.05
2018-04-27T07:06:31.418Z,25.19
2018-04-27T07:09:00.369Z,24.70
2018-04-27T07:11:31.034Z,24.56
2018-04-27T07:14:00.107Z,25.51
2018-04-27T07:16:29.101Z,25.39
2018-04-27T07:21:32.308Z,24.65
2018-04-27T07:24:01.909Z,24.87
2018-04-27T07:26:31.789Z,24.87
2018-04-27T07:29:00.863Z,24.66
2018-04-27T07:31:30.579Z,25.20
2018-04-27T07:33:59.537Z,26.63
2018-04-27T07:36:28.525Z,27.49
2018-04-27T07:38:57.521Z,30.35
2018-04-27T07:41:26.553Z,32.85
2018-04-27T07:43:55.580Z,33.50
2018-04-27T07:46:24.605Z,34.01
2018-04-27T07:48:53.684Z,35.92
2018-04-27T07:51:22.799Z,37.93
2018-04-27T07:53:52.028Z,38.67
2018-04-27T07:56:22.726Z,40.15
2018-04-27T07:58:51.824Z,42.08
2018-04-27T08:01:21.843Z,43.35
2018-04-27T08:03:51.971Z,42.86
2018-04-27T08:06:22.084Z,44.99
2018-04-27T08:08:51.121Z,45.10
2018-04-27T08:13:54.186Z,45.66
2018-04-27T08:16:23.280Z,46.22
2018-04-27T08:18:54.327Z,44.97
2018-04-27T08:21:23.386Z,44.77
2018-04-27T08:23:52.622Z,44.69
2018-04-27T08:26:36.469Z,44.28
2018-04-27T08:29:05.559Z,45.00
2018-04-27T08:31:38.342Z,44.71
2018-04-27T08:34:08.352Z,44.37
2018-04-27T08:36:37.359Z,43.93
2018-04-27T08:39:08.192Z,44.40
2018-04-27T08:41:37.177Z,44.87
2018-04-27T08:44:06.179Z,44.71
2018-04-27T08:46:35.269Z,43.68
2018-04-27T08:49:04.276Z,44.75
2018-04-27T08:51:33.469Z,44.49
2018-04-27T08:54:03.462Z,44.08
2018-04-27T08:56:32.690Z,43.81
2018-04-27T08:59:01.763Z,43.61
2018-04-27T09:01:30.675Z,44.33
2018-04-27T09:04:00.496Z,43.93
2018-04-27T09:06:29.572Z,43.30
2018-04-27T09:08:58.687Z,44.12
2018-04-27T09:11:27.683Z,44.35
2018-04-27T09:13:56.721Z,43.77
2018-04-27T09:16:25.778Z,43.25
2018-04-27T09:18:55.216Z,43.26
2018-04-27T09:21:24.168Z,42.85
2018-04-27T09:23:53.943Z,43.03
2018-04-27T09:26:23.056Z,43.07
2018-04-27T09:28:52.002Z,43.19
2018-04-27T09:31:21.013Z,44.78
2018-04-27T09:33:49.960Z,44.66
2018-04-27T09:36:20.195Z,45.50
2018-04-27T09:38:49.176Z,45.69
2018-04-27T09:41:18.296Z,45.90
2018-04-27T09:43:48.082Z,45.67
2018-04-27T09:46:18.308Z,45.33
2018-04-27T09:48:47.305Z,45.94
2018-04-27T09:51:16.405Z,46.28
2018-04-27T09:53:46.136Z,45.46
2018-04-27T09:56:20.026Z,47.48
2018-04-27T09:58:50.039Z,47.17
2018-04-27T10:01:19.304Z,48.43
2018-04-27T10:03:48.334Z,49.27
2018-04-27T10:06:18.252Z,49.11
2018-04-27T10:08:47.360Z,47.80
2018-04-27T10:11:16.342Z,48.42
2018-04-27T10:13:45.375Z,49.02
2018-04-27T10:16:14.280Z,52.80
2018-04-27T10:18:43.215Z,53.71
2018-04-27T10:21:12.428Z,55.66
2018-04-27T10:23:41.354Z,64.44
2018-04-27T10:26:11.355Z,67.42
2018-04-27T10:31:14.918Z,72.94
2018-04-27T10:33:43.873Z,72.54
2018-04-27T10:36:13.039Z,70.68
2018-04-27T10:38:42.247Z,67.31
2018-04-27T10:41:11.329Z,68.66
2018-04-27T10:43:40.436Z,68.89
2018-04-27T10:46:09.531Z,65.25
2018-04-27T10:48:38.495Z,61.53
2018-04-27T10:51:08.435Z,58.34
2018-04-27T10:53:37.360Z,58.12
2018-04-27T10:56:06.541Z,55.91
2018-04-27T10:58:38.281Z,56.13
2018-04-27T11:01:08.405Z,56.30
2018-04-27T11:03:37.497Z,57.22
2018-04-27T11:06:06.649Z,58.49
2018-04-27T11:08:35.734Z,58.51
2018-04-27T11:11:04.877Z,60.81
2018-04-27T11:13:34.152Z,60.33
2018-04-27T11:16:03.424Z,62.06
2018-04-27T11:18:32.594Z,63.83
2018-04-27T11:21:01.796Z,64.51
2018-04-27T11:23:31.544Z,64.82
2018-04-27T11:26:00.634Z,66.54
2018-04-27T11:28:32.361Z,67.83
2018-04-27T11:31:01.445Z,68.70
2018-04-27T11:33:31.525Z,68.02
2018-04-27T11:36:01.403Z,67.91
2018-04-27T11:38:30.910Z,69.20
2018-04-27T11:41:00.096Z,69.50
2018-04-27T11:46:03.925Z,69.43
2018-04-27T11:48:33.557Z,68.28
2018-04-27T11:51:02.635Z,67.24
2018-04-27T11:53:31.622Z,68.20
2018-04-27T11:56:01.552Z,68.17
2018-04-27T11:58:32.157Z,68.69
2018-04-27T12:01:02.393Z,67.73
2018-04-27T12:03:31.485Z,67.93
2018-04-27T12:06:02.226Z,67.23
2018-04-27T12:08:31.194Z,66.01
2018-04-27T12:11:00.219Z,64.42
2018-04-27T12:13:29.217Z,64.61
2018-04-27T12:15:58.311Z,65.78
2018-04-27T12:18:27.395Z,66.86
2018-04-27T12:20:56.405Z,66.25
2018-04-27T12:23:25.284Z,66.80
2018-04-27T12:25:54.382Z,65.92
2018-04-27T12:30:57.158Z,65.53
2018-04-27T12:33:26.073Z,69.73
2018-04-27T12:35:56.094Z,69.46
2018-04-27T12:38:25.090Z,69.22
2018-04-27T12:40:54.092Z,70.26
2018-04-27T12:43:23.283Z,71.46
2018-04-27T12:45:52.263Z,72.27
2018-04-27T12:48:21.276Z,72.01
2018-04-27T12:50:51.287Z,72.33
2018-04-27T12:53:20.390Z,72.20
2018-04-27T12:55:49.571Z,71.98
2018-04-27T12:58:20.416Z,72.03
2018-04-27T13:00:50.233Z,72.35
2018-04-27T13:03:19.133Z,74.14
2018-04-27T13:05:49.002Z,73.92
2018-04-27T13:08:18.134Z,75.32
2018-04-27T13:10:48.206Z,76.78
2018-04-27T13:13:17.352Z,75.58
2018-04-27T13:15:46.665Z,74.08
2018-04-27T13:18:16.297Z,73.94
2018-04-27T13:20:47.923Z,74.90
2018-04-27T13:23:16.816Z,74.91
2018-04-27T13:25:46.726Z,75.02
2018-04-27T13:28:17.365Z,75.32
2018-04-27T13:30:46.299Z,76.07
2018-04-27T13:33:15.348Z,75.99
2018-04-27T13:35:45.514Z,75.95
2018-04-27T13:38:14.474Z,76.54
2018-04-27T13:40:43.455Z,77.14
2018-04-27T13:43:13.480Z,76.12
2018-04-27T13:45:42.448Z,74.71
2018-04-27T13:48:11.380Z,74.57
2018-04-27T13:50:41.414Z,74.58
2018-04-27T13:53:10.410Z,73.56
2018-04-27T13:55:39.365Z,73.81
2018-04-27T13:58:09.380Z,72.26
2018-04-27T14:00:39.021Z,72.06
2018-04-27T14:03:08.185Z,70.92
2018-04-27T14:05:37.563Z,70.59
2018-04-27T14:08:07.638Z,69.67
2018-04-27T14:10:36.774Z,70.11
2018-04-27T14:13:06.027Z,70.23
2018-04-27T14:15:35.106Z,68.72
2018-04-27T14:18:05.079Z,68.01
2018-04-27T14:20:34.153Z,67.77
2018-04-27T14:23:03.118Z,67.39
2018-04-27T14:25:32.217Z,67.88
2018-04-27T14:28:02.067Z,67.62
2018-04-27T14:30:31.325Z,67.64
2018-04-27T14:33:00.204Z,68.04
2018-04-27T14:35:29.099Z,67.12
2018-04-27T14:37:57.991Z,67.38
2018-04-27T14:40:27.007Z,66.70
2018-04-27T14:42:58.565Z,67.32
2018-04-27T14:45:27.648Z,66.60
2018-04-27T14:47:56.652Z,67.28
2018-04-27T14:50:27.377Z,66.38
2018-04-27T14:52:56.415Z,66.51
2018-04-27T14:55:25.456Z,65.77
2018-04-27T14:57:54.825Z,66.60
2018-04-27T15:00:23.861Z,66.92
2018-04-27T15:02:53.167Z,66.90
2018-04-27T15:05:22.366Z,68.02
2018-04-27T15:07:51.382Z,68.79
2018-04-27T15:10:20.454Z,68.41
2018-04-27T15:12:49.440Z,69.19
2018-04-27T15:15:18.786Z,69.34
2018-04-27T15:17:47.738Z,69.34
2018-04-27T15:20:21.855Z,70.02
2018-04-27T15:22:50.750Z,70.82
2018-04-27T15:25:19.740Z,71.62
2018-04-27T15:30:24.075Z,71.89
2018-04-27T15:32:52.966Z,71.68
2018-04-27T15:35:22.069Z,71.71
2018-04-27T15:37:51.105Z,71.82
2018-04-27T15:40:20.070Z,72.41
2018-04-27T15:42:49.259Z,73.56
2018-04-27T15:45:18.348Z,73.87
2018-04-27T15:47:47.398Z,74.86
2018-04-27T15:50:16.570Z,74.68
2018-04-27T15:52:45.648Z,74.34
2018-04-27T15:55:14.534Z,73.85
2018-04-27T15:57:46.702Z,74.58
2018-04-27T16:00:15.806Z,75.08
2018-04-27T16:02:45.717Z,75.36
2018-04-27T16:05:14.951Z,75.83
2018-04-27T16:07:44.009Z,75.86
2018-04-27T16:10:13.113Z,76.14
2018-04-27T16:12:42.109Z,75.86
2018-04-27T16:15:11.193Z,76.16
2018-04-27T16:17:40.298Z,76.60
2018-04-27T16:20:10.224Z,76.84
2018-04-27T16:22:39.408Z,76.91
2018-04-27T16:25:08.656Z,76.90
2018-04-27T16:27:39.646Z,77.02
2018-04-27T16:30:08.831Z,76.50
2018-04-27T16:32:37.803Z,77.15
2018-04-27T16:35:08.524Z,76.98
2018-04-27T16:37:37.667Z,77.30
2018-04-27T16:40:07.177Z,76.78
2018-04-27T16:42:36.282Z,78.02
2018-04-27T16:45:05.374Z,78.36
2018-04-27T16:47:34.505Z,78.20
2018-04-27T16:50:06.135Z,77.93
2018-04-27T16:52:35.118Z,77.64
2018-04-27T16:55:04.215Z,77.89
2018-04-27T16:57:33.247Z,78.23
2018-04-27T17:00:02.210Z,78.11
2018-04-27T17:02:31.199Z,77.91
2018-04-27T17:05:01.186Z,77.66
2018-04-27T17:07:30.281Z,77.66
2018-04-27T17:09:59.200Z,77.50
2018-04-27T17:12:28.408Z,77.85
2018-04-27T17:14:57.511Z,78.12
2018-04-27T17:17:26.468Z,78.16
2018-04-27T17:19:55.594Z,77.97
2018-04-27T17:22:24.691Z,78.78
2018-04-27T17:24:53.678Z,78.63
2018-04-27T17:27:24.369Z,78.81
2018-04-27T17:29:53.403Z,79.04
2018-04-27T17:32:22.344Z,79.25
2018-04-27T17:34:54.065Z,79.28
2018-04-27T17:37:23.154Z,79.76
2018-04-27T17:39:53.006Z,80.13
2018-04-27T17:42:22.990Z,80.00
2018-04-27T17:44:52.083Z,81.09
2018-04-27T17:47:21.039Z,81.83
2018-04-27T17:49:50.185Z,82.95
2018-04-27T17:52:19.444Z,83.61
2018-04-27T17:54:48.389Z,83.77
2018-04-27T17:57:17.374Z,84.37
2018-04-27T17:59:47.271Z,84.73
2018-04-27T18:02:16.282Z,85.21
2018-04-27T18:04:45.347Z,86.06
2018-04-27T18:07:14.477Z,86.57
2018-04-27T18:09:43.563Z,86.50
2018-04-27T18:12:12.697Z,86.25
2018-04-27T18:14:42.644Z,86.14
2018-04-27T18:17:11.668Z,85.91
2018-04-27T18:19:40.772Z,86.05
2018-04-27T18:22:09.863Z,86.23
2018-04-27T18:24:38.930Z,86.60
2018-04-27T18:27:08.156Z,86.74
2018-04-27T18:29:37.267Z,86.45
2018-04-27T18:32:06.249Z,86.08
2018-04-27T18:34:36.835Z,85.98
2018-04-27T18:37:06.024Z,84.95
2018-04-27T18:39:35.015Z,83.83
2018-04-27T18:42:04.167Z,83.07
2018-04-27T18:44:33.216Z,82.22
2018-04-27T18:47:02.296Z,81.18
2018-04-27T18:49:31.461Z,80.31
2018-04-27T18:52:00.552Z,80.03
2018-04-27T18:54:29.699Z,79.46
2018-04-27T18:57:05.304Z,79.33
2018-04-27T18:59:34.535Z,78.70
2018-04-27T19:02:03.688Z,78.67
2018-04-27T19:04:34.230Z,78.42
2018-04-27T19:07:03.165Z,78.27
2018-04-27T19:09:32.322Z,77.95
2018-04-27T19:12:06.644Z,77.83
2018-04-27T19:14:36.044Z,77.96
2018-04-27T19:17:05.143Z,78.10
2018-04-27T19:19:36.084Z,78.21
2018-04-27T19:22:05.387Z,78.21
2018-04-27T19:24:37.558Z,78.30
2018-04-27T19:29:50.609Z,78.68
2018-04-27T19:32:21.060Z,78.52
2018-04-27T19:34:50.423Z,79.06
2018-04-27T19:37:21.075Z,78.98
2018-04-27T19:39:52.387Z,78.61
2018-04-27T19:42:23.350Z,78.90
2018-04-27T19:44:54.387Z,79.34
2018-04-27T19:47:27.293Z,79.28
2018-04-27T19:49:59.687Z,79.36
2018-04-27T19:52:33.733Z,79.61
2018-04-27T19:55:08.301Z,79.61
2018-04-27T20:00:17.373Z,80.49
2018-04-27T20:02:48.278Z,80.86
2018-04-27T20:05:18.288Z,81.01
2018-04-27T20:07:47.675Z,81.10
2018-04-27T20:12:53.899Z,81.41
2018-04-27T20:15:36.426Z,81.41
2018-04-27T20:21:06.842Z,81.71
2018-04-27T20:23:36.030Z,81.48
2018-04-27T20:26:05.912Z,81.34
2018-04-27T20:28:35.961Z,81.42
2018-04-27T20:31:05.467Z,81.47
2018-04-27T20:33:34.640Z,81.70
2018-04-27T20:36:08.066Z,81.68
2018-04-27T20:38:37.305Z,81.58
2018-04-27T20:41:15.064Z,81.78
2018-04-27T20:43:45.291Z,81.75
2018-04-27T20:46:14.383Z,81.53
2018-04-27T20:51:17.827Z,81.95
2018-04-27T20:54:01.744Z,82.35
2018-04-27T20:56:42.359Z,82.36
2018-04-27T20:59:15.094Z,81.92
2018-04-27T21:01:44.710Z,82.13
2018-04-27T21:04:16.063Z,82.56
2018-04-27T21:06:46.535Z,82.58
2018-04-27T21:09:16.708Z,82.86
2018-04-27T21:11:46.823Z,82.88
2018-04-27T21:14:16.267Z,82.95
2018-04-27T21:16:46.348Z,82.69
2018-04-27T21:19:15.263Z,83.12
2018-04-27T21:21:44.388Z,83.55
2018-04-27T21:24:14.271Z,83.51
2018-04-27T21:26:43.292Z,83.51
2018-04-27T21:29:23.027Z,83.16
2018-04-27T21:31:52.032Z,83.22
2018-04-27T21:34:21.286Z,83.55
2018-04-27T21:36:53.785Z,83.47
2018-04-27T21:39:26.279Z,83.54
2018-04-27T21:42:17.962Z,83.42
2018-04-27T21:44:47.515Z,83.11
2018-04-27T21:47:32.946Z,83.38
2018-04-27T21:50:06.865Z,83.63
2018-04-27T21:52:39.190Z,83.45
2018-04-27T21:55:08.232Z,83.47
2018-04-27T21:57:49.157Z,83.63
2018-04-27T22:00:19.581Z,83.89
2018-04-27T22:02:56.305Z,84.25
2018-04-27T22:08:32.636Z,84.19
2018-04-27T22:11:08.588Z,84.77
2018-04-27T22:13:38.457Z,84.82
2018-04-27T22:19:16.594Z,84.90
2018-04-27T22:21:47.652Z,85.06
2018-04-27T22:24:18.681Z,84.93
2018-04-27T22:26:47.783Z,84.87
2018-04-27T22:29:28.629Z,84.90
2018-04-27T22:32:00.508Z,85.19
2018-04-27T22:34:30.816Z,85.34
2018-04-27T22:37:00.073Z,85.42
2018-04-27T22:39:54.836Z,85.54
2018-04-27T22:42:26.433Z,85.66
2018-04-27T22:44:55.634Z,86.21
2018-04-27T22:47:33.552Z,86.00
2018-04-27T22:50:03.443Z,85.88
2018-04-27T22:52:33.329Z,85.92
2018-04-27T22:55:03.268Z,86.08
2018-04-27T23:11:24.867Z,86.87
2018-04-27T23:16:55.813Z,87.04
2018-04-27T23:19:28.167Z,87.58
2018-04-27T23:22:18.780Z,87.55
2018-04-27T23:24:49.364Z,87.84
2018-04-27T23:27:19.650Z,87.76
2018-04-27T23:29:49.355Z,87.68
2018-04-27T23:32:19.383Z,87.94
2018-04-27T23:34:48.635Z,87.66
2018-04-27T23:37:18.739Z,88.06
2018-04-27T23:39:49.334Z,87.84
2018-04-27T23:42:20.371Z,88.16
2018-04-27T23:44:49.559Z,88.13
2018-04-27T23:47:20.979Z,87.88
2018-04-27T23:49:50.859Z,87.73
2018-04-27T23:52:20.126Z,87.90
2018-04-27T23:54:49.339Z,87.27
2018-04-27T23:57:19.048Z,87.32
2018-04-27T23:59:48.234Z,87.22
